createdAt,value
2018-09-15T00:00:01.817Z,97808.48
2018-09-15T00:02:28.781Z,97803.75
2018-09-15T00:04:55.778Z,97805.06
2018-09-15T00:07:22.730Z,97805.06
2018-09-15T00:09:49.747Z,97805.86
2018-09-15T00:12:16.712Z,97806.37
2018-09-15T00:14:43.746Z,97804.27
2018-09-15T00:17:11.004Z,97807.69
2018-09-15T00:19:37.931Z,97808.48
2018-09-15T00:22:04.924Z,97805.34
2018-09-15T00:24:31.872Z,97802.44
2018-09-15T00:26:58.817Z,97800.33
2018-09-15T00:29:25.816Z,97804.81
2018-09-15T00:31:52.810Z,97800.88
2018-09-15T00:34:19.970Z,97808.48
2018-09-15T00:36:46.948Z,97811.11
2018-09-15T00:39:13.941Z,97806.37
2018-09-15T00:41:40.942Z,97804.81
2018-09-15T00:44:07.963Z,97806.66
2018-09-15T00:46:35.036Z,97801.91
2018-09-15T00:49:01.964Z,97801.67
2018-09-15T00:51:28.987Z,97804.81
2018-09-15T00:53:55.931Z,97802.70
2018-09-15T00:56:23.030Z,97802.19
2018-09-15T00:58:49.985Z,97804.02
2018-09-15T01:01:16.952Z,97814.81
2018-09-15T01:03:43.970Z,97814.02
2018-09-15T01:06:11.038Z,97806.66
2018-09-15T01:08:38.038Z,97804.30
2018-09-15T01:11:05.032Z,97807.45
2018-09-15T01:13:32.058Z,97796.94
2018-09-15T01:15:59.021Z,97801.67
2018-09-15T01:18:26.019Z,97799.56
2018-09-15T01:20:52.995Z,97801.39
2018-09-15T01:23:19.946Z,97810.59
2018-09-15T01:25:46.954Z,97809.28
2018-09-15T01:28:13.940Z,97805.06
2018-09-15T01:30:40.893Z,97806.66
2018-09-15T01:33:07.871Z,97810.08
2018-09-15T01:35:34.905Z,97817.95
2018-09-15T01:38:01.885Z,97817.95
2018-09-15T01:40:28.877Z,97819.27
2018-09-15T01:42:55.866Z,97821.37
2018-09-15T01:45:22.821Z,97816.64
2018-09-15T01:47:49.834Z,97819.79
2018-09-15T01:50:16.776Z,97822.42
2018-09-15T01:52:43.752Z,97821.90
2018-09-15T01:55:10.708Z,97816.64
2018-09-15T01:57:37.682Z,97814.02
2018-09-15T02:00:04.676Z,97818.75
2018-09-15T02:02:31.675Z,97814.53
2018-09-15T02:04:58.722Z,97819.27
2018-09-15T02:07:25.648Z,97825.32
2018-09-15T02:09:52.608Z,97827.95
2018-09-15T02:12:19.542Z,97834.52
2018-09-15T02:14:46.456Z,97824.01
2018-09-15T02:17:13.407Z,97817.95
2018-09-15T02:19:40.325Z,97822.69
2018-09-15T02:22:07.309Z,97821.90
2018-09-15T02:24:34.325Z,97825.62
2018-09-15T02:27:01.237Z,97835.31
2018-09-15T02:29:28.241Z,97842.71
2018-09-15T02:31:55.212Z,97839.77
2018-09-15T02:34:22.292Z,97838.46
2018-09-15T02:36:49.273Z,97833.20
2018-09-15T02:39:16.291Z,97834.00
2018-09-15T02:41:43.217Z,97834.52
2018-09-15T02:44:10.155Z,97841.09
2018-09-15T02:46:37.189Z,97849.77
2018-09-15T02:49:04.187Z,97843.20
2018-09-15T02:51:31.214Z,97840.57
2018-09-15T02:53:58.187Z,97841.09
2018-09-15T02:56:25.152Z,97846.66
2018-09-15T02:58:52.107Z,97840.08
2018-09-15T03:01:19.095Z,97836.14
2018-09-15T03:03:46.019Z,97833.20
2018-09-15T03:06:12.928Z,97827.95
2018-09-15T03:08:39.901Z,97839.25
2018-09-15T03:11:06.881Z,97841.39
2018-09-15T03:13:33.848Z,97845.03
2018-09-15T03:16:00.841Z,97843.50
2018-09-15T03:18:27.859Z,97842.71
2018-09-15T03:20:54.832Z,97848.45
2018-09-15T03:23:21.923Z,97844.02
2018-09-15T03:25:48.956Z,97837.95
2018-09-15T03:28:15.898Z,97843.50
2018-09-15T03:30:42.969Z,97842.19
2018-09-15T03:33:09.988Z,97847.73
2018-09-15T03:35:36.937Z,97838.25
2018-09-15T03:38:03.966Z,97847.97
2018-09-15T03:40:30.935Z,97842.19
2018-09-15T03:42:57.901Z,97847.45
2018-09-15T03:45:24.830Z,97844.81
2018-09-15T03:47:51.847Z,97846.13
2018-09-15T03:50:18.825Z,97845.34
2018-09-15T03:52:45.790Z,97843.50
2018-09-15T03:55:12.729Z,97844.81
2018-09-15T03:57:39.682Z,97841.39
2018-09-15T04:00:06.612Z,97842.47
2018-09-15T04:02:33.577Z,97850.08
2018-09-15T04:05:00.517Z,97845.62
2018-09-15T04:07:27.472Z,97851.39
2018-09-15T04:09:54.411Z,97853.50
2018-09-15T04:12:21.377Z,97847.45
2018-09-15T04:14:48.337Z,97851.39
2018-09-15T04:17:15.286Z,97855.61
2018-09-15T04:19:42.247Z,97855.09
2018-09-15T04:22:09.157Z,97856.95
2018-09-15T04:24:36.122Z,97855.64
2018-09-15T04:27:03.061Z,97854.84
2018-09-15T04:29:29.993Z,97859.59
2018-09-15T04:31:56.942Z,97860.10
2018-09-15T04:34:23.865Z,97859.03
2018-09-15T04:36:50.769Z,97870.09
2018-09-15T04:39:17.717Z,97872.72
2018-09-15T04:41:44.717Z,97875.88
2018-09-15T04:44:11.865Z,97877.70
2018-09-15T04:46:38.814Z,97878.30
2018-09-15T04:49:05.809Z,97880.13
2018-09-15T04:51:32.809Z,97890.36
2018-09-15T04:53:59.716Z,97900.10
2018-09-15T04:56:26.862Z,97901.05
2018-09-15T04:58:53.923Z,97910.19
2018-09-15T05:01:20.873Z,97916.53
2018-09-15T05:03:47.913Z,97920.18
2018-09-15T05:06:14.970Z,97921.09
2018-09-15T05:08:41.951Z,97923.47
2018-09-15T05:11:08.964Z,97927.97
2018-09-15T05:13:36.053Z,97932.98
2018-09-15T05:16:03.028Z,97941.15
2018-09-15T05:18:30.074Z,97936.69
2018-09-15T05:20:57.073Z,97944.05
2018-09-15T05:23:24.046Z,97952.22
2018-09-15T05:25:51.117Z,97959.06
2018-09-15T05:28:18.105Z,97953.81
2018-09-15T05:30:45.117Z,97955.64
2018-09-15T05:33:12.105Z,97965.64
2018-09-15T05:35:39.045Z,97962.73
2018-09-15T05:38:06.012Z,97962.21
2018-09-15T05:40:32.984Z,97966.95
2018-09-15T05:42:59.952Z,97967.23
2018-09-15T05:45:26.902Z,97966.44
2018-09-15T05:47:53.901Z,97977.73
2018-09-15T05:50:20.886Z,97980.37
2018-09-15T05:52:47.907Z,97978.26
2018-09-15T05:55:14.908Z,97986.14
2018-09-15T05:57:42.132Z,97983.00
2018-09-15T06:00:09.133Z,97994.02
2018-09-15T06:02:36.096Z,98000.08
2018-09-15T06:05:03.104Z,98003.62
2018-09-15T06:07:30.155Z,98004.61
2018-09-15T06:09:57.052Z,98008.55
2018-09-15T06:12:23.945Z,98015.12
2018-09-15T06:14:50.825Z,98015.60
2018-09-15T06:17:17.724Z,98016.12
2018-09-15T06:19:44.626Z,98021.38
2018-09-15T06:22:11.665Z,98024.80
2018-09-15T06:24:38.593Z,98025.31
2018-09-15T06:27:05.476Z,98030.36
2018-09-15T06:29:32.389Z,98034.31
2018-09-15T06:31:59.338Z,98033.51
2018-09-15T06:34:26.224Z,98038.77
2018-09-15T06:36:53.115Z,98040.08
2018-09-15T06:39:20.072Z,98046.65
2018-09-15T06:41:46.983Z,98045.81
2018-09-15T06:44:13.881Z,98055.84
2018-09-15T06:46:40.768Z,98061.59
2018-09-15T06:49:07.694Z,98052.70
2018-09-15T06:51:34.582Z,98043.66
2018-09-15T06:54:01.859Z,98059.78
2018-09-15T06:56:28.773Z,98061.89
2018-09-15T06:58:55.684Z,98052.70
2018-09-15T07:01:22.579Z,98044.81
2018-09-15T07:03:49.505Z,98050.87
2018-09-15T07:06:16.406Z,98054.81
2018-09-15T07:08:43.297Z,98060.06
2018-09-15T07:11:10.217Z,98063.21
2018-09-15T07:13:37.136Z,98070.86
2018-09-15T07:16:04.029Z,98070.06
2018-09-15T07:18:30.918Z,98061.89
2018-09-15T07:20:57.873Z,98070.58
2018-09-15T07:23:24.755Z,98077.14
2018-09-15T07:25:51.769Z,98079.25
2018-09-15T07:28:18.655Z,98083.20
2018-09-15T07:30:45.550Z,98081.09
2018-09-15T07:33:12.433Z,98089.77
2018-09-15T07:35:39.321Z,98092.39
2018-09-15T07:38:06.200Z,98083.99
2018-09-15T07:40:33.090Z,98087.94
2018-09-15T07:43:00.649Z,98087.14
2018-09-15T07:45:27.567Z,98095.54
2018-09-15T07:47:54.465Z,98101.59
2018-09-15T07:50:21.390Z,98115.01
2018-09-15T07:52:48.281Z,98111.59
2018-09-15T07:55:15.165Z,98114.21
2018-09-15T07:57:42.155Z,98118.16
2018-09-15T08:00:08.966Z,98118.16
2018-09-15T08:02:35.874Z,98125.52
2018-09-15T08:05:02.773Z,98112.90
2018-09-15T08:07:29.684Z,98103.19
2018-09-15T08:09:56.582Z,98114.73
2018-09-15T08:12:23.472Z,98113.93
2018-09-15T08:14:50.360Z,98117.35
2018-09-15T08:17:17.253Z,98116.05
2018-09-15T08:19:44.154Z,98117.87
2018-09-15T08:22:11.053Z,98114.73
2018-09-15T08:24:37.959Z,98112.90
2018-09-15T08:27:04.913Z,98114.73
2018-09-15T08:29:31.808Z,98113.70
2018-09-15T08:31:58.768Z,98120.78
2018-09-15T08:34:25.646Z,98116.05
2018-09-15T08:36:52.573Z,98119.98
2018-09-15T08:39:19.461Z,98119.98
2018-09-15T08:41:46.354Z,98118.16
2018-09-15T08:44:13.265Z,98116.84
2018-09-15T08:46:40.165Z,98124.20
2018-09-15T08:49:07.353Z,98115.01
2018-09-15T08:51:34.269Z,98122.61
2018-09-15T08:54:01.159Z,98126.55
2018-09-15T08:56:28.048Z,98128.66
2018-09-15T08:58:54.974Z,98128.14
2018-09-15T09:01:21.875Z,98131.29
2018-09-15T09:03:48.891Z,98137.86
2018-09-15T09:06:15.743Z,98141.00
2018-09-15T09:08:42.637Z,98141.80
2018-09-15T09:11:09.533Z,98143.63
2018-09-15T09:13:36.473Z,98128.63
2018-09-15T09:16:03.377Z,98145.23
2018-09-15T09:18:30.296Z,98149.17
2018-09-15T09:20:57.203Z,98149.69
2018-09-15T09:23:24.106Z,98146.02
2018-09-15T09:25:51.065Z,98137.06
2018-09-15T09:28:17.949Z,98136.83
2018-09-15T09:30:44.845Z,98135.52
2018-09-15T09:33:11.785Z,98133.41
2018-09-15T09:35:38.665Z,98135.52
2018-09-15T09:38:05.591Z,98133.41
2018-09-15T09:40:32.521Z,98132.89
2018-09-15T09:42:59.473Z,98136.31
2018-09-15T09:45:26.380Z,98139.45
2018-09-15T09:47:53.360Z,98138.94
2018-09-15T09:50:20.172Z,98134.20
2018-09-15T09:52:47.070Z,98131.05
2018-09-15T09:55:13.960Z,98131.05
2018-09-15T09:57:40.862Z,98137.62
2018-09-15T10:00:07.788Z,98139.45
2018-09-15T10:02:34.695Z,98140.77
2018-09-15T10:05:01.591Z,98134.72
2018-09-15T10:07:28.494Z,98135.00
2018-09-15T10:09:55.389Z,98145.51
2018-09-15T10:12:22.269Z,98142.36
2018-09-15T10:14:49.168Z,98133.69
2018-09-15T10:17:16.056Z,98138.42
2018-09-15T10:19:43.033Z,98134.48
2018-09-15T10:22:09.954Z,98133.17
2018-09-15T10:24:36.869Z,98140.53
2018-09-15T10:27:03.748Z,98137.11
2018-09-15T10:29:30.645Z,98132.14
2018-09-15T10:31:57.614Z,98136.59
2018-09-15T10:34:24.547Z,98130.83
2018-09-15T10:36:51.501Z,98134.25
2018-09-15T10:39:18.400Z,98137.91
2018-09-15T10:41:45.289Z,98132.94
2018-09-15T10:44:12.176Z,98134.48
2018-09-15T10:46:39.120Z,98134.77
2018-09-15T10:49:06.047Z,98140.02
2018-09-15T10:51:32.945Z,98139.22
2018-09-15T10:54:00.134Z,98141.56
2018-09-15T10:56:27.087Z,98136.88
2018-09-15T10:58:54.341Z,98131.34
2018-09-15T11:01:21.287Z,98122.66
2018-09-15T11:03:48.190Z,98132.94
2018-09-15T11:06:15.099Z,98132.94
2018-09-15T11:08:42.306Z,98126.87
2018-09-15T11:11:09.213Z,98129.51
2018-09-15T11:13:36.237Z,98132.94
2018-09-15T11:16:03.187Z,98132.14
2018-09-15T11:18:30.068Z,98135.05
2018-09-15T11:20:56.970Z,98136.36
2018-09-15T11:23:23.854Z,98133.73
2018-09-15T11:25:50.740Z,98129.79
2018-09-15T11:28:17.650Z,98128.99
2018-09-15T11:30:44.545Z,98132.94
2018-09-15T11:33:11.446Z,98131.91
2018-09-15T11:35:38.345Z,98138.98
2018-09-15T11:38:05.228Z,98137.95
2018-09-15T11:40:32.125Z,98131.38
2018-09-15T11:42:59.044Z,98130.08
2018-09-15T11:45:25.939Z,98134.02
2018-09-15T11:47:52.897Z,98128.76
2018-09-15T11:50:19.750Z,98121.91
2018-09-15T11:52:47.273Z,98134.02
2018-09-15T11:55:14.226Z,98124.30
2018-09-15T11:57:41.129Z,98121.67
2018-09-15T12:00:08.165Z,98121.39
2018-09-15T12:02:35.058Z,98120.88
2018-09-15T12:05:01.949Z,98116.93
2018-09-15T12:07:29.197Z,98127.96
2018-09-15T12:09:56.554Z,98122.19
2018-09-15T12:12:23.443Z,98126.13
2018-09-15T12:14:50.332Z,98130.35
2018-09-15T12:17:17.215Z,98130.87
2018-09-15T12:19:44.124Z,98127.73
2018-09-15T12:22:11.017Z,98132.18
2018-09-15T12:24:37.896Z,98130.35
2018-09-15T12:27:04.811Z,98126.64
2018-09-15T12:29:31.941Z,98129.03
2018-09-15T12:31:58.841Z,98124.81
2018-09-15T12:34:25.772Z,98118.25
2018-09-15T12:36:52.661Z,98120.64
2018-09-15T12:39:19.559Z,98119.84
2018-09-15T12:41:46.557Z,98119.84
2018-09-15T12:44:13.453Z,98118.53
2018-09-15T12:46:40.336Z,98119.84
2018-09-15T12:49:07.240Z,98125.09
2018-09-15T12:51:34.186Z,98126.41
2018-09-15T12:54:01.098Z,98123.27
2018-09-15T12:56:28.018Z,98126.69
2018-09-15T12:58:54.914Z,98120.64
2018-09-15T13:01:21.829Z,98118.02
2018-09-15T13:03:48.722Z,98129.03
2018-09-15T13:06:15.644Z,98121.44
2018-09-15T13:08:42.520Z,98121.95
2018-09-15T13:11:09.569Z,98119.61
2018-09-15T13:13:36.466Z,98113.27
2018-09-15T13:16:03.356Z,98120.64
2018-09-15T13:18:30.265Z,98110.92
2018-09-15T13:20:57.187Z,98119.84
2018-09-15T13:23:24.089Z,98106.19
2018-09-15T13:25:51.003Z,98117.50
2018-09-15T13:28:17.962Z,98118.81
2018-09-15T13:30:44.869Z,98112.23
2018-09-15T13:33:11.755Z,98110.41
2018-09-15T13:35:38.798Z,98110.92
2018-09-15T13:38:05.710Z,98106.98
2018-09-15T13:40:32.603Z,98119.09
2018-09-15T13:42:59.493Z,98113.55
2018-09-15T13:45:26.382Z,98116.98
2018-09-15T13:47:53.280Z,98119.33
2018-09-15T13:50:20.173Z,98120.13
2018-09-15T13:52:47.095Z,98110.92
2018-09-15T13:55:13.997Z,98109.61
2018-09-15T13:57:40.890Z,98109.09
2018-09-15T14:00:07.873Z,98106.47
2018-09-15T14:02:40.874Z,98106.47
2018-09-15T14:05:07.808Z,98108.30
2018-09-15T14:07:34.717Z,98103.84
2018-09-15T14:10:07.044Z,98093.84
2018-09-15T14:12:28.534Z,98093.33
2018-09-15T14:14:55.428Z,98094.13
2018-09-15T14:17:22.314Z,98092.02
2018-09-15T14:19:49.205Z,98100.18
2018-09-15T14:22:16.134Z,98100.70
2018-09-15T14:24:43.037Z,98107.55
2018-09-15T14:27:09.950Z,98114.63
2018-09-15T14:29:36.855Z,98107.78
2018-09-15T14:32:03.778Z,98102.01
2018-09-15T14:34:30.720Z,98098.86
2018-09-15T14:36:57.601Z,98095.95
2018-09-15T14:39:24.498Z,98099.90
2018-09-15T14:41:51.384Z,98104.63
2018-09-15T14:44:18.339Z,98100.18
2018-09-15T14:46:45.211Z,98090.18
2018-09-15T14:49:12.100Z,98095.72
2018-09-15T14:51:38.983Z,98094.92
2018-09-15T14:54:05.885Z,98095.20
2018-09-15T14:56:32.788Z,98093.33
2018-09-15T14:58:59.702Z,98092.30
2018-09-15T15:01:26.602Z,98087.03
2018-09-15T15:03:53.496Z,98088.63
2018-09-15T15:06:20.420Z,98085.45
2018-09-15T15:08:47.344Z,98086.08
2018-09-15T15:11:14.334Z,98088.47
2018-09-15T15:13:41.356Z,98090.86
2018-09-15T15:16:08.260Z,98091.33
2018-09-15T15:18:35.156Z,98086.88
2018-09-15T15:21:02.098Z,98090.02
2018-09-15T15:23:29.003Z,98083.17
2018-09-15T15:25:55.910Z,98085.28
2018-09-15T15:28:22.795Z,98083.66
2018-09-15T15:30:49.706Z,98085.80
2018-09-15T15:33:16.609Z,98083.17
2018-09-15T15:35:43.510Z,98083.66
2018-09-15T15:38:10.410Z,98082.86
2018-09-15T15:40:37.305Z,98091.27
2018-09-15T15:43:04.246Z,98092.38
2018-09-15T15:45:31.160Z,98091.85
2018-09-15T15:47:58.050Z,98092.05
2018-09-15T15:50:24.958Z,98090.74
2018-09-15T15:52:51.849Z,98088.91
2018-09-15T15:55:18.748Z,98088.12
2018-09-15T15:57:45.644Z,98089.43
2018-09-15T16:00:12.529Z,98092.05
2018-09-15T16:02:39.404Z,98086.59
2018-09-15T16:05:06.287Z,98082.86
2018-09-15T16:07:33.190Z,98082.86
2018-09-15T16:10:00.093Z,98082.06
2018-09-15T16:12:26.992Z,98083.38
2018-09-15T16:14:53.933Z,98084.69
2018-09-15T16:17:20.877Z,98094.41
2018-09-15T16:19:47.787Z,98092.30
2018-09-15T16:22:14.649Z,98090.74
2018-09-15T16:24:41.720Z,98092.58
2018-09-15T16:27:08.618Z,98097.31
2018-09-15T16:29:35.511Z,98095.48
2018-09-15T16:32:02.428Z,98094.69
2018-09-15T16:34:29.325Z,98097.83
2018-09-15T16:36:56.246Z,98097.55
2018-09-15T16:39:23.146Z,98102.57
2018-09-15T16:41:50.066Z,98109.66
2018-09-15T16:44:16.964Z,98108.34
2018-09-15T16:46:43.889Z,98102.29
2018-09-15T16:49:10.796Z,98109.66
2018-09-15T16:51:37.939Z,98110.02
2018-09-15T16:54:05.683Z,98110.30
2018-09-15T16:56:32.742Z,98112.41
2018-09-15T16:58:59.765Z,98117.94
2018-09-15T17:01:26.774Z,98116.63
2018-09-15T17:03:53.738Z,98117.14
2018-09-15T17:06:20.732Z,98121.88
2018-09-15T17:08:47.751Z,98117.42
2018-09-15T17:11:14.744Z,98118.73
2018-09-15T17:13:41.858Z,98120.57
2018-09-15T17:16:08.874Z,98122.64
2018-09-15T17:18:35.969Z,98129.46
2018-09-15T17:21:02.993Z,98115.70
2018-09-15T17:23:30.038Z,98138.77
2018-09-15T17:25:57.151Z,98144.25
2018-09-15T17:28:24.482Z,98138.95
2018-09-15T17:30:51.516Z,98140.73
2018-09-15T17:33:18.531Z,98143.80
2018-09-15T17:35:45.776Z,98144.55
2018-09-15T17:38:12.941Z,98146.89
2018-09-15T17:40:39.910Z,98146.32
2018-09-15T17:43:06.982Z,98151.29
2018-09-15T17:45:34.028Z,98155.75
2018-09-15T17:48:01.025Z,98158.09
2018-09-15T17:50:28.043Z,98160.72
2018-09-15T17:52:56.070Z,98162.03
2018-09-15T17:55:23.058Z,98164.66
2018-09-15T17:57:50.043Z,98166.48
2018-09-15T18:00:17.018Z,98174.65
2018-09-15T18:02:43.973Z,98173.63
2018-09-15T18:05:11.010Z,98172.59
2018-09-15T18:07:37.972Z,98170.02
2018-09-15T18:10:04.943Z,98172.92
2018-09-15T18:12:31.896Z,98176.34
2018-09-15T18:14:58.943Z,98175.32
2018-09-15T18:17:25.873Z,98183.00
2018-09-15T18:19:52.828Z,98190.88
2018-09-15T18:22:19.825Z,98194.59
2018-09-15T18:24:47.049Z,98197.50
2018-09-15T18:27:14.093Z,98203.03
2018-09-15T18:29:41.006Z,98207.78
2018-09-15T18:32:07.933Z,98210.17
2018-09-15T18:34:34.961Z,98211.77
2018-09-15T18:37:02.123Z,98215.70
2018-09-15T18:39:28.999Z,98217.30
2018-09-15T18:41:56.058Z,98229.12
2018-09-15T18:44:22.995Z,98233.07
2018-09-15T18:46:49.959Z,98227.81
2018-09-15T18:49:16.889Z,98242.55
2018-09-15T18:51:43.817Z,98241.75
2018-09-15T18:54:10.871Z,98242.31
2018-09-15T18:56:37.850Z,98243.40
2018-09-15T18:59:04.824Z,98245.83
2018-09-15T19:01:31.827Z,98242.97
2018-09-15T19:03:58.772Z,98247.99
2018-09-15T19:06:25.712Z,98249.30
2018-09-15T19:08:52.727Z,98243.02
2018-09-15T19:11:19.716Z,98246.91
2018-09-15T19:13:46.682Z,98247.42
2018-09-15T19:16:13.709Z,98245.52
2018-09-15T19:18:40.791Z,98249.69
2018-09-15T19:21:07.797Z,98243.34
2018-09-15T19:23:34.868Z,98251.74
2018-09-15T19:26:01.881Z,98250.15
2018-09-15T19:28:28.843Z,98258.83
2018-09-15T19:30:55.798Z,98258.83
2018-09-15T19:33:22.728Z,98256.20
2018-09-15T19:35:49.717Z,98261.45
2018-09-15T19:38:16.709Z,98264.59
2018-09-15T19:40:43.674Z,98273.28
2018-09-15T19:43:10.652Z,98268.02
2018-09-15T19:45:37.867Z,98269.85
2018-09-15T19:48:04.800Z,98272.48
2018-09-15T19:50:31.751Z,98277.22
2018-09-15T19:52:58.685Z,98273.80
2018-09-15T19:55:25.781Z,98272.53
2018-09-15T19:57:52.798Z,98277.56
2018-09-15T20:00:19.782Z,98278.67
2018-09-15T20:02:46.793Z,98277.64
2018-09-15T20:05:13.840Z,98283.41
2018-09-15T20:07:40.890Z,98288.95
2018-09-15T20:10:07.840Z,98280.05
2018-09-15T20:12:34.802Z,98287.41
2018-09-15T20:15:01.716Z,98289.75
2018-09-15T20:17:28.688Z,98295.06
2018-09-15T20:19:55.724Z,98286.89
2018-09-15T20:22:22.673Z,98291.64
2018-09-15T20:24:50.109Z,98296.09
2018-09-15T20:27:17.024Z,98295.06
2018-09-15T20:29:44.012Z,98282.44
2018-09-15T20:32:10.946Z,98288.49
2018-09-15T20:34:38.534Z,98291.13
2018-09-15T20:37:05.521Z,98288.78
2018-09-15T20:39:32.581Z,98290.09
2018-09-15T20:41:59.525Z,98284.03
2018-09-15T20:44:26.595Z,98280.89
2018-09-15T20:46:53.544Z,98290.09
2018-09-15T20:49:20.532Z,98288.78
2018-09-15T20:51:47.584Z,98292.20
2018-09-15T20:54:14.575Z,98289.58
2018-09-15T20:56:41.535Z,98286.95
2018-09-15T20:59:08.517Z,98283.00
2018-09-15T21:01:35.637Z,98285.12
2018-09-15T21:04:02.626Z,98289.58
2018-09-15T21:06:29.662Z,98288.27
2018-09-15T21:08:56.607Z,98263.98
2018-09-15T21:11:23.576Z,98289.86
2018-09-15T21:13:50.628Z,98289.58
2018-09-15T21:16:17.661Z,98296.14
2018-09-15T21:18:45.115Z,98294.31
2018-09-15T21:21:12.100Z,98301.17
2018-09-15T21:23:39.069Z,98294.31
2018-09-15T21:26:06.084Z,98296.95
2018-09-15T21:28:33.137Z,98300.09
2018-09-15T21:31:00.178Z,98294.83
2018-09-15T21:33:27.155Z,98303.00
2018-09-15T21:35:54.087Z,98300.88
2018-09-15T21:38:21.351Z,98302.72
2018-09-15T21:40:48.332Z,98312.20
2018-09-15T21:43:15.352Z,98304.31
2018-09-15T21:45:42.390Z,98307.45
2018-09-15T21:48:09.480Z,98312.71
2018-09-15T21:50:36.428Z,98309.56
2018-09-15T21:53:03.405Z,98306.94
2018-09-15T21:55:30.485Z,98314.83
2018-09-15T21:57:57.437Z,98311.40
2018-09-15T22:00:24.393Z,98318.48
2018-09-15T22:02:51.455Z,98316.66
2018-09-15T22:05:18.467Z,98325.34
2018-09-15T22:07:45.640Z,98326.65
2018-09-15T22:10:12.653Z,98324.53
2018-09-15T22:12:39.779Z,98323.22
2018-09-15T22:15:10.953Z,98317.97
2018-09-15T22:17:38.013Z,98315.34
2018-09-15T22:20:05.115Z,98315.34
2018-09-15T22:22:32.205Z,98311.40
2018-09-15T22:24:59.196Z,98320.59
2018-09-15T22:27:27.163Z,98324.31
2018-09-15T22:29:54.253Z,98330.08
2018-09-15T22:32:21.390Z,98331.91
2018-09-15T22:34:48.527Z,98326.65
2018-09-15T22:37:15.597Z,98327.45
2018-09-15T22:39:42.695Z,98330.08
2018-09-15T22:42:09.780Z,98328.77
2018-09-15T22:44:37.090Z,98332.70
2018-09-15T22:47:04.173Z,98327.45
2018-09-15T22:49:31.295Z,98323.73
2018-09-15T22:51:58.311Z,98325.34
2018-09-15T22:54:25.289Z,98324.02
2018-09-15T22:56:52.257Z,98324.53
2018-09-15T22:59:19.421Z,98322.20
2018-09-15T23:01:46.525Z,98325.34
2018-09-15T23:04:14.827Z,98327.16
2018-09-15T23:06:42.024Z,98324.53
2018-09-15T23:09:10.092Z,98329.28
2018-09-15T23:11:37.077Z,98329.84
2018-09-15T23:14:04.145Z,98331.16
2018-09-15T23:16:31.316Z,98334.02
2018-09-15T23:18:58.340Z,98332.19
2018-09-15T23:21:25.285Z,98324.02
2018-09-15T23:23:52.256Z,98320.08
2018-09-15T23:26:19.260Z,98315.34
2018-09-15T23:28:46.326Z,98321.39
2018-09-15T23:31:13.299Z,98318.77
2018-09-15T23:33:40.363Z,98318.25
2018-09-15T23:36:07.440Z,98320.08
2018-09-15T23:38:34.427Z,98324.83
2018-09-15T23:41:01.446Z,98317.45
2018-09-15T23:43:28.473Z,98321.39
2018-09-15T23:45:55.418Z,98318.25
2018-09-15T23:48:22.349Z,98319.56
2018-09-15T23:50:49.394Z,98313.00
2018-09-15T23:53:16.397Z,98315.63
2018-09-15T23:55:43.614Z,98309.05
2018-09-15T23:58:10.594Z,98307.73
